Live≪ 7e Bike&Run by Night - Marcq en Baroeul 2017 ≫

Le 25/02/2017



Astuce pour faire une recherche facilement: "CTRL + F"

Choix de la course:
Bike&Run XS (12.000 Km)
Bike&Run XXS (5.000 Km)

Bike&Run XS
Clt Athlète Club Temps Sexe Cat. T1 T2 T3 T4 T5 T6 T7
1 498 BIGAN MATHIEU LECLERC David LE COT 00:38:20 M (1e) Senior (1e) 00:05:16 (1e) 00:05:10 (1e) 00:05:21 (2e) 00:05:20 (2e) 00:05:14 (1e) 00:05:14 (1e) 00:05:24 (3e) Partagez votre performance
2 523 VINTAER STEVE GREATTI Giovanni TEAM 23 CENTIMÈTRES 00:38:25 M (2e) Senior (2e) 00:05:38 (4e) 00:05:14 (2e) 00:05:12 (1e) 00:05:15 (1e) 00:05:16 (2e) 00:05:19 (2e) 00:05:21 (1e) Partagez votre performance
3 506 DUTHIEUW ADRIEN DOUTRELIGNE David VATRI 00:38:52 M (3e) Senior (3e) 00:05:17 (2e) 00:05:18 (3e) 00:05:23 (3e) 00:05:21 (3e) 00:05:23 (3e) 00:05:27 (3e) 00:05:26 (4e) Partagez votre performance
4 513 DROP FREDERIC THIEFFRY Adrien DREAM TEAM 00:39:23 M (4e) Senior (4e) 00:05:33 (3e) 00:05:22 (4e) 00:05:27 (4e) 00:05:22 (4e) 00:05:29 (4e) 00:05:30 (4e) 00:05:23 (2e) Partagez votre performance
5 487 DANEL MAXIME VERHAEGHE Gael ACM 00:41:32 M (5e) Senior (5e) 00:05:44 (5e) 00:05:40 (5e) 00:05:41 (6e) 00:05:48 (7e) 00:05:51 (7e) 00:05:47 (6e) 00:05:47 (7e) Partagez votre performance
6 433 VANCAUWENBERGH DAMIEN NOTTE Jérôme TEAM HALLUIN 2 00:41:36 M (6e) Veteran (1e) 00:05:51 (8e) 00:05:48 (9e) 00:05:44 (8e) 00:05:48 (6e) 00:05:46 (5e) 00:05:43 (5e) 00:05:43 (5e) Partagez votre performance
7 442 DUFOUR DAVID TAEYHALS Yannick LES VINTAGES 00:41:38 M (7e) Veteran (2e) 00:05:49 (6e) 00:05:41 (6e) 00:05:41 (7e) 00:05:50 (9e) 00:05:49 (6e) 00:05:49 (7e) 00:05:44 (6e) Partagez votre performance
8 485 BAILLEUX JEAN-BAPTISTE BUCHTA Louis CROW FLIES RUNNING 00:42:11 M (8e) Senior (6e) 00:05:50 (7e) 00:05:43 (8e) 00:05:38 (5e) 00:05:50 (8e) 00:05:57 (9e) 00:05:59 (10e) 00:05:53 (10e) Partagez votre performance
9 450 SANTENS LAURELINE MARIN Nicolas LAUREL ET HARDY 00:42:30 X (1e) Senior (1e) 00:06:12 (13e) 00:05:43 (7e) 00:05:45 (9e) 00:05:48 (5e) 00:05:51 (8e) 00:05:51 (8e) 00:05:57 (14e) Partagez votre performance
10 453 ECREPONT ALEXANDRE CARPENTIER Antoine ANTWANALEK 00:43:04 M (9e) Senior (7e) 00:06:02 (10e) 00:05:52 (11e) 00:05:56 (12e) 00:05:55 (10e) 00:06:00 (10e) 00:06:02 (11e) 00:05:56 (13e) Partagez votre performance
11 486 DELEPORTE ANTOINE DELEFORGE Théo LES CARABINS 00:43:08 M (10e) Senior (8e) 00:05:55 (9e) 00:06:01 (15e) 00:05:56 (11e) 00:06:02 (14e) 00:06:05 (14e) 00:05:58 (9e) 00:05:51 (9e) Partagez votre performance
12 497 COURAUD NICOLAS KOSYDAR Armand NICO Y ARMANDO 00:43:25 M (11e) Junior (1e) 00:06:27 (26e) 00:05:50 (10e) 00:05:50 (10e) 00:05:59 (12e) 00:06:00 (11e) 00:06:03 (13e) 00:05:53 (11e) Partagez votre performance
13 421 DIERYCKX FRANK GEVAERT Philippe LES SOIXANTE-HUITARDS 00:43:29 M (12e) Veteran (3e) 00:06:15 (19e) 00:05:57 (13e) 00:05:57 (13e) 00:05:58 (11e) 00:06:04 (12e) 00:06:04 (14e) 00:05:54 (12e) Partagez votre performance
14 493 MEERSSEMAN NOËL LEGAGE Benoît LES VA TRI DE LA LIGNE 1 00:43:42 M (13e) Senior (9e) 00:06:11 (12e) 00:05:56 (12e) 00:06:02 (14e) 00:06:01 (13e) 00:06:08 (17e) 00:06:03 (12e) 00:05:57 (15e) Partagez votre performance
15 481 DEWAVRIN FLORENT HENNEQUART Martin LES VTTISTES 00:44:07 M (14e) Senior (10e) 00:06:06 (11e) 00:05:58 (14e) 00:06:08 (16e) 00:06:17 (21e) 00:06:04 (13e) 00:06:05 (15e) 00:06:10 (17e) Partagez votre performance
16 482 POUPARD CHRISTOPHER POUGET Laurent POUPOU 00:44:26 M (15e) Veteran (4e) 00:06:14 (15e) 00:06:07 (17e) 00:06:03 (15e) 00:06:04 (15e) 00:06:05 (16e) 00:06:18 (17e) 00:06:08 (16e) Partagez votre performance
17 454 DESSORT CLÉMENT RETAILLEAU Vincent MARKY MARCQ 00:45:11 M (16e) Senior (11e) 00:06:25 (24e) 00:06:05 (16e) 00:06:15 (21e) 00:06:07 (16e) 00:06:14 (18e) 00:06:22 (21e) 00:06:18 (20e) Partagez votre performance
18 410 SALOMEZ EMMANUEL CUVILLIER Frédéric FREDMAN 00:45:17 M (17e) Veteran (5e) 00:06:24 (23e) 00:06:14 (20e) 00:06:14 (18e) 00:06:15 (20e) 00:06:20 (19e) 00:06:14 (16e) 00:06:15 (18e) Partagez votre performance
19 456 MATHON CÉDRIC MATHON Charly MATHON 00:45:17 M (18e) Senior (12e) 00:06:18 (21e) 00:06:59 (53e) 00:06:18 (23e) 00:06:11 (17e) 00:06:05 (15e) 00:06:20 (19e) 00:05:50 (8e) Partagez votre performance
20 401 LEIGNEL MICHEL VANHALWYN Dimitri LES BARJOTS 00:45:36 M (19e) Veteran (6e) 00:06:28 (28e) 00:06:09 (18e) 00:06:16 (22e) 00:06:12 (18e) 00:06:21 (20e) 00:06:23 (22e) 00:06:19 (21e) Partagez votre performance
21 480 GOLABEK ERIC POIRIEZ Marc TEAM POTO 00:45:55 M (20e) Senior (13e) 00:06:27 (27e) 00:06:15 (22e) 00:06:15 (20e) 00:06:23 (23e) 00:06:23 (22e) 00:06:21 (20e) 00:06:21 (25e) Partagez votre performance
22 516 MOTTE RÉMI THIBAULT Srocki LES FLAMBEURS 00:46:13 M (21e) Senior (14e) 00:06:20 (22e) 00:06:19 (26e) 00:06:09 (17e) 00:06:24 (25e) 00:06:26 (23e) 00:06:26 (25e) 00:06:40 (38e) Partagez votre performance
23 489 BOULANGER BERTRAND VANESLANDE Pierre Olivier TEAM LA FRITE 00:46:15 M (22e) Veteran (7e) 00:06:42 (33e) 00:06:12 (19e) 00:06:15 (19e) 00:06:31 (30e) 00:06:32 (31e) 00:06:26 (24e) 00:06:15 (19e) Partagez votre performance
24 519 FLINOIS ANTHONY CANAT Anne Sophie BOULYONNAIS 00:46:17 X (2e) Senior (2e) 00:06:15 (16e) 00:06:25 (30e) 00:06:28 (27e) 00:06:31 (29e) 00:06:21 (21e) 00:06:30 (27e) 00:06:20 (22e) Partagez votre performance
25 490 MOREL ALAIN MINNE Bertrand LES MECANOS 00:46:26 M (23e) Veteran (8e) 00:06:45 (36e) 00:06:15 (23e) 00:06:25 (26e) 00:06:26 (27e) 00:06:26 (24e) 00:06:24 (23e) 00:06:21 (24e) Partagez votre performance
26 448 DIDIER SEBASTIEN MOULIN Alexis TEAM OTARIES 00:46:28 M (24e) Senior (15e) 00:06:26 (25e) 00:06:15 (21e) 00:06:29 (29e) 00:06:22 (22e) 00:06:33 (32e) 00:06:27 (26e) 00:06:34 (33e) Partagez votre performance
27 449 GRIMONPREZ JULIEN COUROYER Nathan VIN DE NOIX 00:46:31 M (25e) Senior (16e) 00:06:14 (14e) 00:06:21 (29e) 00:06:41 (37e) 00:06:33 (32e) 00:06:32 (30e) 00:06:20 (18e) 00:06:21 (23e) Partagez votre performance
28 408 GILLERON SOPHIE CAUDRELIER David TIC & TAC 00:46:44 X (3e) Senior (3e) 00:06:42 (34e) 00:06:17 (25e) 00:06:24 (25e) 00:06:24 (24e) 00:06:27 (25e) 00:06:31 (29e) 00:06:32 (32e) Partagez votre performance
29 478 MOULIN NICOLAS CHALVIGNAC Jean-Pierre NICOLAS MOULIN 00:46:47 M (26e) Veteran (9e) 00:06:38 (30e) 00:06:20 (27e) 00:12:48 (114e) 00:13:01 (114e) 00:06:30 (29e) 00:00:00 (0e) 00:00:00 (0e) Partagez votre performance
30 472 VANDENBERGHE VICTOR CHEVALIER Constant UNIVERSITÉ DE LILLE II - 16 00:46:52 M (27e) Senior (17e) 00:06:16 (20e) 00:06:36 (39e) 00:06:29 (28e) 00:06:24 (26e) 00:06:28 (28e) 00:06:33 (30e) 00:06:41 (40e) Partagez votre performance
31 439 HIDDEN ROMAIN ROMBAUT Jerome LES BEERDGEURS 00:46:56 M (28e) Senior (18e) 00:06:15 (17e) 00:06:21 (28e) 00:06:41 (35e) 00:06:32 (31e) 00:06:36 (34e) 00:06:39 (33e) 00:06:31 (30e) Partagez votre performance
32 411 RUEF XAVIER MORELLE James LES D'JEUNS 00:46:58 M (29e) Senior (19e) 00:06:41 (32e) 00:06:33 (36e) 00:06:33 (30e) 00:06:29 (28e) 00:06:28 (27e) 00:06:30 (28e) 00:06:22 (27e) Partagez votre performance
33 499 PLANQUE FLORENT ROGER Didier BOP TEAM 00:47:47 M (30e) Senior (20e) 00:06:46 (37e) 00:06:27 (32e) 00:06:36 (32e) 00:06:40 (35e) 00:06:38 (37e) 00:06:47 (37e) 00:06:26 (29e) Partagez votre performance
34 522 LEFEBVRE FABRICE TURPIN Remi TOMATES PELÉES 00:47:58 M (31e) Senior (21e) 00:06:31 (29e) 00:06:29 (33e) 00:06:38 (33e) 00:07:02 (49e) 00:06:38 (36e) 00:06:41 (34e) 00:06:32 (31e) Partagez votre performance
35 441 ROMAGNY BENOIT AUCLAIR Eric LES BEAUXPERES 00:48:09 M (32e) Veteran (10e) 00:07:20 (60e) 00:06:38 (40e) 00:06:35 (31e) 00:06:35 (33e) 00:06:38 (35e) 00:06:33 (31e) 00:06:26 (28e) Partagez votre performance
36 511 REY JEAN-SYLVAIN SCHOOS Antoine MF91 00:48:14 M (33e) Senior (22e) 00:06:50 (40e) 00:06:16 (24e) 00:06:48 (46e) 00:06:37 (34e) 00:06:43 (40e) 00:06:56 (43e) 00:06:37 (35e) Partagez votre performance
37 418 DECRUCQ FRANCOIS GUILBAUT Nicolas DEGUIB 00:48:33 M (34e) Senior (23e) 00:06:49 (39e) 00:06:40 (41e) 00:06:43 (40e) 00:06:45 (37e) 00:06:43 (41e) 00:06:41 (35e) 00:06:39 (36e) Partagez votre performance
38 446 NOTEBAERT PAULINE NOTEBAERT Elsa LES SISTERS 00:48:34 F (1e) Junior (1e) 00:06:39 (31e) 00:06:30 (35e) 00:06:42 (38e) 00:06:49 (42e) 00:06:47 (42e) 00:06:54 (42e) 00:06:45 (43e) Partagez votre performance
39 405 GRABIEC REGIS BAUDUIN Eric GRABIEC/BAUDUIN 00:48:36 M (35e) Senior (24e) 00:07:14 (53e) 00:06:41 (43e) 00:06:41 (36e) 00:06:42 (36e) 00:06:39 (38e) 00:06:39 (32e) 00:06:35 (34e) Partagez votre performance
40 426 DELANNOY PHILIPPE DELANNOY Vianney THE BAD FROGS 00:48:42 M (36e) Senior (25e) 00:06:58 (42e) 00:06:40 (42e) 00:06:40 (34e) 00:06:48 (41e) 00:06:42 (39e) 00:06:47 (38e) 00:06:40 (37e) Partagez votre performance
41 508 VERON AMANDINE LELEU Vincent APO 00:48:49 X (4e) Senior (4e) 00:07:07 (49e) 00:06:43 (46e) 00:06:47 (43e) 00:06:46 (38e) 00:06:33 (33e) 00:06:47 (36e) 00:06:45 (42e) Partagez votre performance
42 491 SCHERNU CHRISTOPHE BOUVELLE Julien LES CCVIENS 00:48:49 M (37e) Senior (26e) 00:06:15 (18e) 00:06:29 (34e) 00:06:18 (24e) 00:06:14 (19e) 00:06:28 (26e) 00:07:38 (67e) 00:07:48 (77e) Partagez votre performance
43 517 BELLU SALVATORE DELAY Stephane VALENCIENNES METROPOLE 00:49:05 M (38e) Veteran (11e) 00:07:04 (46e) 00:06:34 (37e) 00:06:43 (39e) 00:06:56 (45e) 00:06:47 (43e) 00:06:52 (39e) 00:06:41 (39e) Partagez votre performance
44 412 LAMBERT MARINE FACOMPREZ Helen MARLEN 00:49:11 F (2e) Senior (1e) 00:06:59 (44e) 00:06:43 (45e) 00:06:48 (47e) 00:06:47 (40e) 00:06:49 (44e) 00:06:52 (41e) 00:06:43 (41e) Partagez votre performance
45 495 BOCQUET GUILLAUME DESMARCHELIER Mathieu LES ROIS DE LA PÉDALE 00:49:28 M (39e) Senior (27e) 00:07:00 (45e) 00:06:34 (38e) 00:06:48 (45e) 00:06:53 (43e) 00:06:52 (46e) 00:06:57 (44e) 00:07:05 (53e) Partagez votre performance
46 436 STEVENARD CLAIRE LECONTE Christian FOR THE FUN 00:49:33 X (5e) Senior (5e) 00:06:54 (41e) 00:06:42 (44e) 00:06:47 (42e) 00:06:55 (44e) 00:06:50 (45e) 00:07:01 (46e) 00:06:52 (46e) Partagez votre performance
47 524 LABRIERE CHARLES TRICHARD Jean 00:49:53 M (40e) Senior (28e) 00:08:07 (85e) 00:06:26 (31e) 00:06:47 (44e) 00:06:56 (46e) 00:06:55 (47e) 00:07:02 (47e) 00:06:22 (26e) Partagez votre performance
48 419 BEAUSSART SÉBASTIEN BEAUSSART Cynthia SEB&TITIA 00:49:56 X (6e) Veteran (1e) 00:07:13 (52e) 00:06:49 (49e) 00:06:46 (41e) 00:06:47 (39e) 00:07:02 (49e) 00:06:52 (40e) 00:06:59 (49e) Partagez votre performance
49 514 VERCRUYSSE THIBAUT DUTOIT Geoffrey LOREL ET HARDY 00:50:34 M (41e) Senior (29e) 00:07:04 (47e) 00:06:58 (52e) 00:07:08 (51e) 00:07:02 (48e) 00:07:00 (48e) 00:07:01 (45e) 00:06:52 (47e) Partagez votre performance
50 484 DAUTRICOURT RÉMI FOLLET Jérome 1JOUR1SPORT 00:51:05 M (42e) Senior (30e) 00:06:58 (43e) 00:06:45 (47e) 00:06:57 (48e) 00:06:58 (47e) 00:07:46 (76e) 00:07:15 (52e) 00:07:02 (52e) Partagez votre performance
51 521 BOUCHE SEBASTIEN GABEZ David GABBOUCHE 00:51:09 M (43e) Veteran (12e) 00:07:25 (61e) 00:07:04 (55e) 00:07:09 (54e) 00:07:05 (51e) 00:07:05 (51e) 00:07:06 (49e) 00:06:48 (44e) Partagez votre performance
52 423 SION ALEXIS QUIÈVRE Grégoire LES IRONMANS 00:51:28 M (44e) Cadet (1e) 00:06:43 (35e) 00:06:46 (48e) 00:07:10 (55e) 00:07:25 (61e) 00:07:16 (56e) 00:07:20 (55e) 00:07:18 (60e) Partagez votre performance
53 424 PAYEN JULIE CIURLIK Pauline LES BICHES 00:51:36 F (3e) Cadet (1e) 00:06:46 (38e) 00:07:06 (58e) 00:07:11 (56e) 00:07:30 (64e) 00:07:10 (52e) 00:07:18 (54e) 00:07:00 (50e) Partagez votre performance
54 510 TURPIN YANNICK DELEPINE Christelle TWO LOVERS 00:52:03 X (7e) Veteran (2e) 00:08:14 (89e) 00:06:50 (50e) 00:07:08 (52e) 00:07:02 (50e) 00:07:15 (54e) 00:07:04 (48e) 00:06:59 (48e) Partagez votre performance
55 496 FAYEULLE JULIEN DELANNOY Yann ON FERA AU MIEUX 00:52:11 M (45e) Senior (31e) 00:07:11 (51e) 00:06:53 (51e) 00:07:09 (53e) 00:07:23 (59e) 00:07:30 (62e) 00:07:26 (59e) 00:07:09 (54e) Partagez votre performance
56 483 CABANEL AURELIEN PHILIPPE Yannick LES RINCES COCHONNES 00:52:12 M (46e) Senior (32e) 00:07:25 (62e) 00:07:05 (56e) 00:07:11 (57e) 00:07:12 (54e) 00:07:17 (57e) 00:07:16 (53e) 00:07:12 (55e) Partagez votre performance
57 494 NORTIER THIERRY LEBON Christian ASPL1 00:52:24 M (47e) Veteran (13e) 00:08:05 (84e) 00:07:05 (57e) 00:07:00 (49e) 00:07:10 (52e) 00:07:05 (50e) 00:07:20 (56e) 00:07:00 (51e) Partagez votre performance
58 509 LEON RICHARD VANUXEM Emmanuelle LEOXEM 00:52:48 X (8e) Veteran (3e) 00:07:20 (59e) 00:07:32 (72e) 00:07:11 (58e) 00:07:21 (57e) 00:07:22 (58e) 00:07:13 (51e) 00:07:17 (59e) Partagez votre performance
59 460 HUYGHE AMANDINE GODFRIND Alban UNIVERSITÉ DE LILLE II - 4 00:52:51 X (9e) Senior (6e) 00:07:18 (56e) 00:07:02 (54e) 00:07:17 (61e) 00:07:12 (53e) 00:07:15 (55e) 00:07:24 (58e) 00:07:36 (68e) Partagez votre performance
60 469 MANCHE CÉLINE POLLET David UNIVERSITÉ DE LILLE II - 13 00:53:11 X (10e) Senior (7e) 00:07:28 (63e) 00:07:12 (61e) 00:07:25 (63e) 00:07:15 (56e) 00:07:12 (53e) 00:07:36 (66e) 00:07:28 (64e) Partagez votre performance
61 428 LECLERCQ NATHAN DERVILLE François EXPENDABLES 00:53:20 M (48e) Junior (2e) 00:07:04 (48e) 00:07:09 (59e) 00:07:17 (62e) 00:07:21 (58e) 00:07:44 (73e) 00:07:28 (60e) 00:07:31 (65e) Partagez votre performance
62 413 REBOUT PHILIPPE WIERRE Jordan TCHIC TCHIC 00:53:30 M (49e) Senior (33e) 00:07:36 (65e) 00:07:26 (68e) 00:07:41 (78e) 00:07:43 (70e) 00:07:36 (66e) 00:07:12 (50e) 00:06:49 (45e) Partagez votre performance
63 465 DUHEM JUSTINE MAHIEUX Aurélie UNIVERSITÉ DE LILLE II - 9 00:53:50 F (4e) Senior (2e) 00:07:10 (50e) 00:07:31 (71e) 00:07:36 (71e) 00:07:15 (55e) 00:07:31 (64e) 00:07:29 (61e) 00:07:44 (72e) Partagez votre performance
64 520 FENART VICTORIA GENTINA Alice PINK & BLACK WOMEN 00:54:01 F (5e) Cadet (2e) 00:07:41 (67e) 00:07:23 (64e) 00:07:15 (60e) 00:07:38 (68e) 00:07:37 (68e) 00:07:31 (63e) 00:07:24 (61e) Partagez votre performance
65 443 PAPIACHVILI NICOLAS CLAVEL François MAIRIE MARCQ 00:54:03 M (50e) Senior (34e) 00:08:07 (86e) 00:07:20 (63e) 00:07:14 (59e) 00:07:24 (60e) 00:07:24 (59e) 00:07:30 (62e) 00:07:28 (63e) Partagez votre performance
66 422 BERTH NATALIE CASIEZ Frédéric NATH ET FRED 00:54:08 X (11e) Veteran (4e) 00:07:58 (79e) 00:07:26 (67e) 00:07:29 (68e) 00:07:30 (63e) 00:07:30 (63e) 00:07:22 (57e) 00:07:17 (58e) Partagez votre performance
67 455 NOTEBAERT LAURENCE VINTAER Frédéric LES VIEUX 00:54:17 X (12e) Veteran (5e) 00:07:51 (75e) 00:07:30 (70e) 00:07:26 (65e) 00:07:31 (65e) 00:07:27 (61e) 00:07:33 (65e) 00:07:16 (56e) Partagez votre performance
68 444 MARQUIS ANAIS LAMIAUX Isabelle LES NAGEUSES DE DERNIÈRE LIGNE 00:54:41 F (6e) Senior (3e) 00:07:44 (70e) 00:07:28 (69e) 00:07:28 (66e) 00:07:34 (66e) 00:07:33 (65e) 00:07:40 (68e) 00:07:33 (67e) Partagez votre performance
69 452 GUYOT THÉOTIME GUYOT Etienne LES GUYOT 00:54:44 M (51e) Senior (35e) 00:07:16 (54e) 00:07:23 (66e) 00:07:25 (64e) 00:07:26 (62e) 00:07:48 (78e) 00:07:43 (70e) 00:08:00 (89e) Partagez votre performance
70 507 MULLER ROBIN MULLER Raphael FATHER & SON 00:54:45 M (52e) Senior (36e) 00:07:37 (66e) 00:07:35 (75e) 00:07:29 (67e) 00:07:44 (75e) 00:07:46 (75e) 00:07:31 (64e) 00:07:32 (66e) Partagez votre performance
71 437 HOUYVET ROMUALD DELPLACE Romain ROM' DOUBLE DOSE 00:55:01 M (53e) Senior (37e) 00:07:43 (69e) 00:07:23 (65e) 00:07:39 (75e) 00:07:44 (73e) 00:07:39 (70e) 00:07:49 (73e) 00:07:26 (62e) Partagez votre performance
72 464 CLAEYS SOPHIE MANCHE Hélène UNIVERSITÉ DE LILLE II - 8 00:55:13 F (7e) Senior (4e) 00:07:44 (71e) 00:07:41 (80e) 00:07:40 (76e) 00:07:35 (67e) 00:07:26 (60e) 00:07:46 (71e) 00:07:43 (71e) Partagez votre performance
73 445 AYRAULT JEAN-PASCAL HECQUET Remi GARDENER'S RUNNER 00:55:14 M (54e) Veteran (14e) 00:08:01 (82e) 00:07:32 (74e) 00:07:43 (80e) 00:07:43 (71e) 00:07:38 (69e) 00:07:41 (69e) 00:07:16 (57e) Partagez votre performance
74 447 PETRINS OCÉANE LEMAIRE Mathias PETRINS/LEMAIRE 00:55:22 X (13e) Cadet (1e) 00:07:18 (57e) 00:07:13 (62e) 00:07:33 (70e) 00:07:47 (77e) 00:07:44 (72e) 00:08:08 (86e) 00:07:56 (84e) Partagez votre performance
75 488 ROGER JULIE ROGER Emilie LES SOEURETTES 00:55:47 F (8e) Senior (5e) 00:07:45 (72e) 00:07:32 (73e) 00:07:39 (74e) 00:07:48 (78e) 00:07:48 (77e) 00:07:53 (75e) 00:07:46 (75e) Partagez votre performance
76 432 MONSOREZ KATIA VEREIN Annick LES WARRIORS 00:55:50 F (9e) Veteran (1e) 00:07:55 (77e) 00:07:36 (76e) 00:07:41 (77e) 00:07:41 (69e) 00:07:40 (71e) 00:07:48 (72e) 00:07:44 (73e) Partagez votre performance
77 459 HELLAL ASNA BEAUCREUX Charlotte UNIVERSITÉ DE LILLE II - 3 00:56:23 F (10e) Senior (6e) 00:08:17 (91e) 00:07:39 (78e) 00:07:42 (79e) 00:07:46 (76e) 00:07:36 (67e) 00:07:54 (76e) 00:07:47 (76e) Partagez votre performance
78 434 BRICE YANNICK DELFAIRIERE Amélie LES PRINCESSES 00:57:07 F (11e) Senior (7e) 00:07:55 (76e) 00:07:44 (83e) 00:07:44 (81e) 00:07:51 (79e) 00:08:09 (84e) 00:08:03 (79e) 00:07:57 (86e) Partagez votre performance
79 427 ANTOINE LAETITIA ANTOINE Benoit LES BRICOLOS 00:57:07 X (14e) Veteran (6e) 00:07:55 (78e) 00:07:42 (82e) 00:08:08 (89e) 00:08:01 (83e) 00:07:59 (81e) 00:07:52 (74e) 00:07:42 (70e) Partagez votre performance
80 416 CRETON MARC MEYNCKENS Sebastien TRIATOMIC'S 3 00:57:10 M (55e) Senior (38e) 00:07:49 (73e) 00:07:11 (60e) 00:07:06 (50e) 00:07:43 (72e) 00:08:24 (93e) 00:08:30 (93e) 00:08:37 (100e) Partagez votre performance
81 435 DELCROIX ERIC CARDOEN Jean Luc LES VIEUX FOUGUEUX 00:57:11 M (56e) Veteran (15e) 00:08:17 (92e) 00:08:00 (89e) 00:07:37 (72e) 00:07:44 (74e) 00:07:56 (80e) 00:07:56 (77e) 00:07:55 (83e) Partagez votre performance
82 468 BOYET AGATHE VIARD Simon UNIVERSITÉ DE LILLE II - 12 00:57:13 X (15e) Junior (1e) 00:07:30 (64e) 00:08:10 (92e) 00:07:38 (73e) 00:08:22 (92e) 00:08:02 (82e) 00:08:03 (80e) 00:07:46 (74e) Partagez votre performance
83 476 BEQUEREL THOMAS VELSON Bernadin Kolin UNIVERSITÉ DE LILLE II - 20 00:57:13 M (57e) Senior (39e) 00:07:18 (58e) 00:07:41 (81e) 00:07:56 (83e) 00:08:13 (87e) 00:08:11 (85e) 00:08:05 (81e) 00:07:59 (88e) Partagez votre performance
84 504 MARTEL NOÉMIE LOIR Fabien LEZ HEMOUREUX 00:57:20 X (16e) Senior (8e) 00:08:11 (87e) 00:07:40 (79e) 00:08:02 (87e) 00:07:58 (82e) 00:07:54 (79e) 00:08:06 (82e) 00:07:51 (79e) Partagez votre performance
85 403 RICHARD THOMAS LORUSSO Théo THÉO & THOMAS 00:57:24 M (58e) Senior (40e) 00:08:00 (80e) 00:07:56 (86e) 00:07:46 (82e) 00:07:53 (80e) 00:08:06 (83e) 00:08:09 (88e) 00:07:51 (81e) Partagez votre performance
86 474 VERBEKE MARIE LÉA DEKIMPE Anne UNIVERSITÉ DE LILLE II - 18 00:58:09 F (12e) Senior (8e) 00:07:43 (68e) 00:08:04 (91e) 00:08:09 (90e) 00:08:06 (84e) 00:08:16 (89e) 00:08:07 (84e) 00:08:06 (91e) Partagez votre performance
87 406 VITSE OLIVIER LAMORISSE Sebastien SEBA-OLIV 00:58:26 M (59e) Veteran (16e) 00:08:20 (93e) 00:07:54 (85e) 00:08:04 (88e) 00:08:07 (85e) 00:08:15 (87e) 00:08:07 (83e) 00:07:51 (80e) Partagez votre performance
88 407 LICTEVOUT CHRISTOPHE DOMENJOD Anais NOUS2 00:58:31 X (17e) Senior (9e) 00:07:50 (74e) 00:07:59 (88e) 00:07:57 (84e) 00:08:19 (90e) 00:08:27 (95e) 00:08:08 (85e) 00:08:12 (95e) Partagez votre performance
89 461 MORTREUX CHLOÉ NOTERMAN Maxime UNIVERSITÉ DE LILLE II - 5 00:58:35 X (18e) Senior (10e) 00:08:02 (83e) 00:07:36 (77e) 00:08:43 (97e) 00:08:14 (88e) 00:08:27 (96e) 00:07:59 (78e) 00:07:50 (78e) Partagez votre performance
90 470 PETIT SARAH DELPORTE Lucas UNIVERSITÉ DE LILLE II - 14 00:58:50 X (19e) Senior (11e) 00:08:15 (90e) 00:08:30 (98e) 00:07:29 (69e) 00:09:21 (104e) 00:07:45 (74e) 00:08:17 (89e) 00:07:39 (69e) Partagez votre performance
91 409 DEROUSSEAU GREGORY BEAUMEISTER Anne DEUX 00:58:57 X (20e) Veteran (7e) 00:08:53 (100e) 00:08:10 (93e) 00:07:59 (85e) 00:07:57 (81e) 00:08:15 (88e) 00:08:09 (87e) 00:07:58 (87e) Partagez votre performance
92 420 BIGO NICOLAS PALFROY Thibaut PAPACOOL 00:59:00 M (60e) Senior (41e) 00:08:34 (96e) 00:07:57 (87e) 00:08:01 (86e) 00:08:11 (86e) 00:08:22 (91e) 00:08:27 (91e) 00:07:52 (82e) Partagez votre performance
93 505 PETIT ERIC FROMENT Julien FROMENT-PETIT 00:59:46 M (61e) Veteran (17e) 00:08:24 (94e) 00:08:12 (94e) 00:08:18 (92e) 00:08:17 (89e) 00:08:14 (86e) 00:08:19 (90e) 00:08:10 (92e) Partagez votre performance
94 451 BAILLON LOÏC CHANTRELLE Laure LAURE ET LOÏC 01:00:16 X (21e) Senior (12e) 00:08:00 (81e) 00:08:21 (97e) 00:08:21 (93e) 00:08:35 (98e) 00:08:22 (92e) 00:08:54 (100e) 00:08:05 (90e) Partagez votre performance
95 479 CRETON FLORA CRETON Colleen COLLEEN ET FLORA 01:00:48 F (13e) Junior (2e) 00:08:12 (88e) 00:08:04 (90e) 00:08:43 (98e) 00:08:34 (97e) 00:08:30 (98e) 00:08:30 (94e) 00:08:24 (98e) Partagez votre performance
96 471 BRAVO LUCAS BEYNEY Rémy UNIVERSITÉ DE LILLE II - 15 01:01:18 M (62e) Senior (42e) 00:08:44 (98e) 00:08:30 (99e) 00:08:36 (94e) 00:08:25 (94e) 00:08:30 (97e) 00:08:33 (95e) 00:08:21 (97e) Partagez votre performance
97 515 ZENNEVORT GARY PERSOON Isa MON NOM EST PERSOON 01:02:06 X (22e) Veteran (8e) 00:10:18 (110e) 00:08:17 (95e) 00:08:18 (91e) 00:08:30 (96e) 00:08:27 (94e) 00:08:29 (92e) 00:08:11 (94e) Partagez votre performance
98 430 LEFEBVRE MARIE CAROLINE LEFEBVRE Jeremy LES LEF 01:02:20 X (23e) Senior (13e) 00:07:18 (55e) 00:08:36 (101e) 00:08:57 (102e) 00:09:08 (100e) 00:08:59 (104e) 00:09:10 (103e) 00:08:20 (96e) Partagez votre performance
99 502 DEGRENIER JONATHAN SAVOYE Victor COUZ3 01:02:37 M (63e) Senior (43e) 00:09:14 (105e) 00:08:21 (96e) 00:08:41 (96e) 00:08:43 (99e) 00:08:47 (101e) 00:08:52 (99e) 00:08:10 (93e) Partagez votre performance
100 462 PAQUET MARINE MOREAU Alexandra UNIVERSITÉ DE LILLE II - 6 01:02:50 F (14e) Senior (9e) 00:08:30 (95e) 00:08:33 (100e) 00:08:56 (101e) 00:08:29 (95e) 00:08:47 (102e) 00:08:38 (96e) 00:08:57 (103e) Partagez votre performance
101 463 MARTEEL CÉLIA VANCOPPENOLLE Zoé UNIVERSITÉ DE LILLE II - 7 01:04:33 F (15e) Senior (10e) 00:08:36 (97e) 00:09:17 (108e) 00:08:56 (99e) 00:09:10 (102e) 00:09:05 (105e) 00:08:57 (102e) 00:08:37 (101e) Partagez votre performance
102 512 MUSELET CHRISTELE BABIN Philippe LES PANDAS BOURRES 01:04:38 X (24e) Veteran (9e) 00:10:37 (111e) 00:07:48 (84e) 00:09:48 (108e) 00:08:19 (91e) 00:08:17 (90e) 00:10:02 (106e) 00:07:56 (85e) Partagez votre performance
103 458 RENARD JOSEPHINE AUGEY Arélie UNIVERSITÉ DE LILLE II - 2 01:04:44 F (16e) Senior (11e) 00:09:11 (103e) 00:09:10 (106e) 00:08:41 (95e) 00:09:20 (103e) 00:08:53 (103e) 00:08:49 (97e) 00:08:35 (99e) Partagez votre performance
104 467 VALTILLE JEANNE VALTILLE Pierre UNIVERSITÉ DE LILLE II - 11 01:05:07 X (25e) Senior (14e) 00:10:00 (108e) 00:09:04 (105e) 00:09:22 (104e) 00:08:22 (93e) 00:08:42 (100e) 00:08:51 (98e) 00:08:52 (102e) Partagez votre performance
105 415 SAVARY LUCIE PERLEIN Sophie TRIATOMIC'S 2 01:05:29 F (17e) Senior (12e) 00:08:46 (99e) 00:08:48 (103e) 00:08:56 (100e) 00:09:08 (101e) 00:09:18 (106e) 00:09:18 (104e) 00:09:13 (104e) Partagez votre performance
106 475 BETTE ALEXINE MOLINELLI Chiara UNIVERSITÉ DE LILLE II - 19 01:05:51 F (18e) Senior (13e) 00:09:11 (104e) 00:08:40 (102e) 00:09:30 (105e) 00:09:40 (106e) 00:08:42 (99e) 00:08:56 (101e) 00:09:17 (106e) Partagez votre performance
107 473 TALLEUX MARION COCHET Sandrine UNIVERSITÉ DE LILLE II - 17 01:06:39 F (19e) Senior (14e) 00:08:59 (102e) 00:08:59 (104e) 00:09:11 (103e) 00:09:23 (105e) 00:09:24 (107e) 00:09:33 (105e) 00:09:15 (105e) Partagez votre performance
108 402 GRAS SYLVIE VANHALWYN Adélaïde LES GIRLS 01:10:56 F (20e) Veteran (2e) 00:08:55 (101e) 00:09:16 (107e) 00:09:40 (106e) 00:10:26 (111e) 00:09:49 (108e) 00:10:53 (112e) 00:09:58 (110e) Partagez votre performance
109 457 CANUT HORTENSE NYADANU Inès UNIVERSITÉ DE LILLE II - 1 01:11:20 F (21e) Senior (15e) 00:09:31 (106e) 00:09:52 (112e) 00:10:09 (111e) 00:10:18 (110e) 00:09:57 (109e) 00:10:03 (108e) 00:09:18 (107e) Partagez votre performance
110 466 CABOCHE ESTELLE OLIVIER Cécile UNIVERSITÉ DE LILLE II - 10 01:11:38 F (22e) Senior (16e) 00:09:54 (107e) 00:10:02 (113e) 00:09:50 (109e) 00:10:06 (108e) 00:10:04 (110e) 00:10:03 (107e) 00:09:32 (108e) Partagez votre performance
111 503 MEDEZ LAURENCE MEDEZ Christian MEDEZ AND CO 01:12:14 X (26e) Veteran (10e) 00:10:37 (112e) 00:09:44 (111e) 00:09:53 (110e) 00:09:59 (107e) 00:10:04 (111e) 00:10:03 (109e) 00:09:42 (109e) Partagez votre performance
112 501 DEGRENIER BRUNO SOEN Maÿlis COUZ2 01:13:24 X (27e) Senior (15e) 00:10:53 (113e) 00:09:22 (110e) 00:09:46 (107e) 00:10:14 (109e) 00:10:17 (112e) 00:10:27 (111e) 00:10:31 (112e) Partagez votre performance
113 500 DEGRENIER EMELYNE SAVOYE Ambre COUZ1 01:14:54 F (23e) Cadet (3e) 00:10:14 (109e) 00:09:21 (109e) 00:10:24 (112e) 00:11:03 (112e) 00:11:02 (113e) 00:10:27 (110e) 00:10:32 (113e) Partagez votre performance
114 518 BAYART CLÉMENCE DUPREZ Gabrielle TOTALLY SPIES 01:21:37 F (24e) Senior (17e) 00:12:00 (114e) 00:11:07 (114e) 00:11:23 (113e) 00:11:11 (113e) 00:11:26 (114e) 00:11:50 (113e) 00:10:26 (111e) Partagez votre performance
DNS 440 BENE PAULINE AUCLAIR Alice PAULINE & ALICE 00:00:00 F (0e) Cadet (0e) 00:00:00 (0e) 00:00:00 (0e) 00:00:00 (0e) 00:00:00 (0e) 00:00:00 (0e) 00:00:00 (0e) 00:00:00 (0e)
DNS 429 CAROEN SIXTINE CAROEN Xavier CAROUNETTE 00:00:00 X (0e) Senior (0e) 00:00:00 (0e) 00:00:00 (0e) 00:00:00 (0e) 00:00:00 (0e) 00:00:00 (0e) 00:00:00 (0e) 00:00:00 (0e)
DNS 417 CRETON MARC MEYNCKENS Sebastien TRIATOMIC'S 3 00:00:00 M (0e) Senior (0e) 00:00:00 (0e) 00:00:00 (0e) 00:00:00 (0e) 00:00:00 (0e) 00:00:00 (0e) 00:00:00 (0e) 00:00:00 (0e)
DNS 404 GELDOF MORGAN GELDOF Capucine GELDOF 00:00:00 X (0e) Senior (0e) 00:00:00 (0e) 00:00:00 (0e) 00:00:00 (0e) 00:00:00 (0e) 00:00:00 (0e) 00:00:00 (0e) 00:00:00 (0e)
DNS 431 GUISLAIN PIERRE YVES BONNET Patrick LES BONS VIEUX POTES 00:00:00 M (0e) Veteran (0e) 00:00:00 (0e) 00:00:00 (0e) 00:00:00 (0e) 00:00:00 (0e) 00:00:00 (0e) 00:00:00 (0e) 00:00:00 (0e)
DNS 477 ROY LÉO MOWAT Etienne UNIVERSITÉ DE LILLE II - 21 00:00:00 M (0e) Senior (0e) 00:00:00 (0e) 00:00:00 (0e) 00:00:00 (0e) 00:00:00 (0e) 00:00:00 (0e) 00:00:00 (0e) 00:00:00 (0e)
DNS 425 VANDENDORPE ROMAIN VANWYNSBERGHE Samuel LES 2 V 00:00:00 M (0e) Senior (0e) 00:00:00 (0e) 00:00:00 (0e) 00:00:00 (0e) 00:00:00 (0e) 00:00:00 (0e) 00:00:00 (0e) 00:00:00 (0e)
DNS 438 VANSTEENKISTE BRUNO VOETEN Nicolas JACQUIE ET MICHEL 00:00:00 M (0e) Veteran (0e) 00:00:00 (0e) 00:00:00 (0e) 00:00:00 (0e) 00:00:00 (0e) 00:00:00 (0e) 00:00:00 (0e) 00:00:00 (0e)
DNS 414 WIERRE MARION WIERRE Julien LES KIWIS 00:00:00 X (0e) Senior (0e) 00:00:00 (0e) 00:00:00 (0e) 00:00:00 (0e) 00:00:00 (0e) 00:00:00 (0e) 00:00:00 (0e) 00:00:00 (0e)
DNS 492 ZAJONZ ANTHONY FLANQUART Delphine VALENCIENNES TRIATHLON 00:00:00 X (0e) Senior (0e) 00:00:00 (0e) 00:00:00 (0e) 00:00:00 (0e) 00:00:00 (0e) 00:00:00 (0e) 00:00:00 (0e) 00:00:00 (0e)


Bike&Run XXS
Clt Athlète Club Temps Sexe Cat. T1 T2 T3
1 313 RENY JULES DEROUBAIX Martin LES FRAGILES DE LILLE TRI 00:20:34 M (1e) Minime (1e) 00:06:18 (1e) 00:06:14 (1e) 00:06:29 (1e) Partagez votre performance
2 308 DURUT CLÉMENT GIRAUD Eliot GIDU 00:21:18 M (2e) Cadet (1e) 00:06:27 (2e) 00:06:47 (2e) 00:06:39 (2e) Partagez votre performance
3 304 VALEMBOIS SEBASTIEN CLUSMAN Maxime SEBAMAX 00:21:45 M (3e) Senior (1e) 00:06:28 (3e) 00:06:59 (5e) 00:06:45 (3e) Partagez votre performance
4 305 RAMERY SEBASTIEN RAMERY Antoine ANTOINE ET SEBASTIEN 00:22:03 M (4e) Senior (2e) 00:06:49 (5e) 00:06:49 (3e) 00:06:52 (4e) Partagez votre performance
5 314 DEPORS ELOI TURPIN Clément TURP & CO 00:22:33 M (5e) Cadet (2e) 00:06:55 (6e) 00:06:55 (4e) 00:07:07 (5e) Partagez votre performance
6 307 DJOUABI HICHAM BOUNAB Cherif TEAMROCKET 00:22:51 M (6e) Senior (3e) 00:06:40 (4e) 00:07:08 (6e) 00:07:14 (6e) Partagez votre performance
7 303 CHIEUX GUILLAUME SONNEVILLE Hugo CHIEUX/SONNEVILLE 00:23:29 M (7e) Minime (2e) 00:07:05 (7e) 00:07:09 (7e) 00:07:33 (7e) Partagez votre performance
8 316 LORTHIOIS ANTHONY LORTHIOIS Christophe TRIATOMIC'S 00:25:24 M (8e) Senior (4e) 00:07:46 (8e) 00:07:42 (8e) 00:07:58 (8e) Partagez votre performance
9 301 GRENON KARINE LABALETTE Christian TRIATOMIC'S 1 00:26:09 X (1e) Senior (1e) 00:07:53 (9e) 00:08:02 (9e) 00:08:19 (9e) Partagez votre performance
10 306 MOURCOU NICOLAS QUIVRON Emmanuel X-RACING SENIOR 00:26:48 M (9e) Veteran (1e) 00:08:10 (10e) 00:08:27 (10e) 00:08:21 (10e) Partagez votre performance
11 309 LANCIAUX CLARA POLITO Catherine LES LOUTRES 00:27:32 F (1e) Senior (1e) 00:08:23 (12e) 00:08:31 (11e) 00:08:42 (12e) Partagez votre performance
12 312 ANDOUCHE CLARA BADAOUI Sirine LES COUSINES DE LILLE TRI 00:27:47 F (2e) Minime (1e) 00:08:17 (11e) 00:08:47 (13e) 00:08:58 (13e) Partagez votre performance
13 311 PETIT MAUD SUCHER Fabienne LES HIRONDELLES 00:28:42 X (2e) Senior (2e) 00:08:52 (13e) 00:08:46 (12e) 00:08:32 (11e) Partagez votre performance
14 310 DAUTRICOURT ANGÉLIQUE MARQUIS Alexia LES SISTERS 00:35:21 F (3e) Senior (2e) 00:10:46 (14e) 00:11:26 (14e) 00:10:25 (14e) Partagez votre performance
DNS 315 ESCUDERO LUCAS ESCUDERO Xavier ESCUDERO PERE ET FILS 00:00:00 M (0e) Senior (0e) 00:00:00 (0e) 00:00:00 (0e) 00:00:00 (0e)
DNS 302 GARBE PAULINE WASSON Victoire LES FROGETTES 00:00:00 F (0e) Minime (0e) 00:00:00 (0e) 00:00:00 (0e) 00:00:00 (0e)